createdAt,value
2022-08-05T00:00:02.670Z,112.500000
2022-08-05T00:01:20.815Z,112.500000
2022-08-05T00:02:07.757Z,22.500000
2022-08-05T00:03:01.141Z,22.500000
2022-08-05T00:04:01.877Z,22.500000
2022-08-05T00:05:05.802Z,0.000000
2022-08-05T00:06:05.325Z,0.000000
2022-08-05T00:07:01.127Z,0.000000
2022-08-05T00:08:01.613Z,0.000000
2022-08-05T00:09:01.162Z,0.000000
2022-08-05T00:10:01.686Z,11.250000
2022-08-05T00:11:01.247Z,11.250000
2022-08-05T00:12:00.285Z,11.250000
2022-08-05T00:13:00.194Z,11.250000
2022-08-05T00:14:00.285Z,11.250000
2022-08-05T00:15:54.126Z,11.250000
2022-08-05T00:16:00.613Z,11.250000
2022-08-05T00:17:01.924Z,11.250000
2022-08-05T00:18:02.554Z,0.000000
2022-08-05T00:19:00.252Z,0.000000
2022-08-05T00:20:03.142Z,0.000000
2022-08-05T00:21:00.269Z,0.000000
2022-08-05T00:22:00.352Z,0.000000
2022-08-05T00:23:02.721Z,0.000000
2022-08-05T00:24:10.056Z,0.000000
2022-08-05T00:25:01.627Z,0.000000
2022-08-05T00:26:00.352Z,0.000000
2022-08-05T00:27:00.296Z,0.000000
2022-08-05T00:28:00.412Z,0.000000
2022-08-05T00:29:00.292Z,0.000000
2022-08-05T00:30:03.391Z,0.000000
2022-08-05T00:31:02.841Z,0.000000
2022-08-05T00:32:13.086Z,0.000000
2022-08-05T00:33:00.331Z,0.000000
2022-08-05T00:34:53.694Z,0.000000
2022-08-05T00:35:06.592Z,0.000000
2022-08-05T00:36:15.888Z,0.000000
2022-08-05T00:37:11.169Z,0.000000
2022-08-05T00:38:00.450Z,0.000000
2022-08-05T00:39:00.419Z,0.000000
2022-08-05T00:40:01.996Z,0.000000
2022-08-05T00:41:00.369Z,0.000000
2022-08-05T00:42:00.497Z,0.000000
2022-08-05T00:43:00.387Z,0.000000
2022-08-05T00:44:01.819Z,0.000000
2022-08-05T00:45:02.021Z,0.000000
2022-08-05T00:46:00.527Z,0.000000
2022-08-05T00:47:02.176Z,0.000000
2022-08-05T00:48:05.360Z,0.000000
2022-08-05T00:49:00.444Z,0.000000
2022-08-05T00:50:01.924Z,0.000000
2022-08-05T00:51:00.484Z,0.000000
2022-08-05T00:52:01.832Z,0.000000
2022-08-05T00:53:00.462Z,0.000000
2022-08-05T00:54:02.938Z,11.250000
2022-08-05T00:55:01.810Z,11.250000
2022-08-05T00:56:01.786Z,0.000000
2022-08-05T00:57:00.501Z,0.000000
2022-08-05T00:58:00.605Z,0.000000
2022-08-05T00:59:00.490Z,0.000000
2022-08-05T01:00:02.387Z,0.000000
2022-08-05T01:01:00.644Z,0.000000
2022-08-05T01:02:00.644Z,0.000000
2022-08-05T01:03:00.545Z,0.000000
2022-08-05T01:04:01.812Z,0.000000
2022-08-05T01:05:01.793Z,0.000000
2022-08-05T01:06:00.654Z,0.000000
2022-08-05T01:07:00.600Z,0.000000
2022-08-05T01:08:40.453Z,0.000000
2022-08-05T01:09:00.594Z,0.000000
2022-08-05T01:10:02.055Z,0.000000
2022-08-05T01:11:00.594Z,0.000000
2022-08-05T01:14:15.608Z,0.000000
2022-08-05T01:15:04.051Z,0.000000
2022-08-05T01:16:00.737Z,0.000000
2022-08-05T01:17:00.640Z,0.000000
2022-08-05T01:18:00.730Z,0.000000
2022-08-05T01:19:01.004Z,0.000000
2022-08-05T01:20:03.437Z,0.000000
2022-08-05T01:21:00.667Z,0.000000
2022-08-05T01:22:00.957Z,0.000000
2022-08-05T01:23:00.687Z,0.000000
2022-08-05T01:24:01.022Z,0.000000
2022-08-05T01:25:01.984Z,0.000000
2022-08-05T01:26:00.797Z,0.000000
2022-08-05T01:27:00.709Z,0.000000
2022-08-05T01:28:00.776Z,0.000000
2022-08-05T01:29:04.353Z,0.000000
2022-08-05T01:30:02.333Z,0.000000
2022-08-05T01:31:00.735Z,0.000000
2022-08-05T01:32:01.794Z,0.000000
2022-08-05T01:33:00.755Z,0.000000
2022-08-05T01:34:00.998Z,0.000000
2022-08-05T01:35:01.986Z,0.000000
2022-08-05T01:36:01.828Z,0.000000
2022-08-05T01:37:00.779Z,0.000000
2022-08-05T01:38:00.845Z,0.000000
2022-08-05T01:39:01.141Z,0.000000
2022-08-05T01:40:04.325Z,0.000000
2022-08-05T01:41:01.321Z,0.000000
2022-08-05T01:42:00.866Z,0.000000
2022-08-05T01:43:00.806Z,0.000000
2022-08-05T01:44:01.799Z,0.000000
2022-08-05T01:45:16.388Z,0.000000
2022-08-05T01:46:07.423Z,0.000000
2022-08-05T01:47:00.838Z,0.000000
2022-08-05T01:48:01.802Z,0.000000
2022-08-05T01:49:00.841Z,0.000000
2022-08-05T01:50:02.986Z,0.000000
2022-08-05T01:51:12.022Z,0.000000
2022-08-05T01:52:01.900Z,0.000000
2022-08-05T01:53:00.887Z,0.000000
2022-08-05T01:54:02.146Z,0.000000
2022-08-05T01:55:02.233Z,0.000000
2022-08-05T01:56:04.453Z,0.000000
2022-08-05T01:58:09.430Z,0.000000
2022-08-05T01:58:10.635Z,0.000000
2022-08-05T01:59:00.914Z,0.000000
2022-08-05T02:00:02.593Z,0.000000
2022-08-05T02:01:00.964Z,0.000000
2022-08-05T02:02:01.112Z,0.000000
2022-08-05T02:03:03.732Z,0.000000
2022-08-05T02:04:01.836Z,0.000000
2022-08-05T02:05:03.069Z,0.000000
2022-08-05T02:06:03.575Z,0.000000
2022-08-05T02:07:00.976Z,0.000000
2022-08-05T02:08:02.057Z,0.000000
2022-08-05T02:09:01.001Z,0.000000
2022-08-05T02:10:02.521Z,0.000000
2022-08-05T02:11:01.029Z,0.000000
2022-08-05T02:12:01.814Z,0.000000
2022-08-05T02:13:01.014Z,0.000000
2022-08-05T02:14:01.163Z,0.000000
2022-08-05T02:15:03.088Z,0.000000
2022-08-05T02:16:01.148Z,0.000000
2022-08-05T02:17:01.050Z,0.000000
2022-08-05T02:18:31.517Z,0.000000
2022-08-05T02:19:01.097Z,0.000000
2022-08-05T02:20:02.667Z,0.000000
2022-08-05T02:21:01.111Z,0.000000
2022-08-05T02:22:01.215Z,0.000000
2022-08-05T02:23:01.115Z,0.000000
2022-08-05T02:24:01.211Z,0.000000
2022-08-05T02:25:02.459Z,0.000000
2022-08-05T02:26:01.287Z,0.000000
2022-08-05T02:27:01.153Z,0.000000
2022-08-05T02:28:01.220Z,0.000000
2022-08-05T02:29:01.160Z,0.000000
2022-08-05T02:30:02.762Z,0.000000
2022-08-05T02:31:00.177Z,0.000000
2022-08-05T02:32:04.887Z,0.000000
2022-08-05T02:33:00.201Z,0.000000
2022-08-05T02:34:00.299Z,0.000000
2022-08-05T02:35:09.672Z,0.000000
2022-08-05T02:36:01.344Z,0.000000
2022-08-05T02:37:00.223Z,0.000000
2022-08-05T02:38:00.420Z,0.000000
2022-08-05T02:39:00.316Z,0.000000
2022-08-05T02:40:01.805Z,0.000000
2022-08-05T02:41:00.256Z,0.000000
2022-08-05T02:42:01.462Z,11.250000
2022-08-05T02:43:00.278Z,11.250000
2022-08-05T02:44:02.254Z,11.250000
2022-08-05T02:45:01.563Z,78.750000
2022-08-05T02:46:01.855Z,78.750000
2022-08-05T02:47:01.209Z,33.750000
2022-08-05T02:48:11.886Z,33.750000
2022-08-05T02:49:00.329Z,67.500000
2022-08-05T02:50:01.928Z,67.500000
2022-08-05T02:51:00.359Z,67.500000
2022-08-05T02:52:04.006Z,90.000000
2022-08-05T02:53:00.349Z,90.000000
2022-08-05T02:54:04.167Z,90.000000
2022-08-05T02:55:05.438Z,56.250000
2022-08-05T02:56:02.229Z,56.250000
2022-08-05T02:57:00.382Z,56.250000
2022-08-05T02:58:09.653Z,90.000000
2022-08-05T02:59:00.396Z,90.000000
2022-08-05T03:00:02.062Z,78.750000
2022-08-05T03:01:00.538Z,78.750000
2022-08-05T03:02:00.625Z,56.250000
2022-08-05T03:03:00.440Z,56.250000
2022-08-05T03:04:02.934Z,56.250000
2022-08-05T03:05:01.792Z,78.750000
2022-08-05T03:06:55.890Z,78.750000
2022-08-05T03:07:00.472Z,56.250000
2022-08-05T03:08:08.893Z,56.250000
2022-08-05T03:09:00.483Z,56.250000
2022-08-05T03:10:02.263Z,78.750000
2022-08-05T03:11:53.853Z,78.750000
2022-08-05T03:12:00.557Z,67.500000
2022-08-05T03:14:02.621Z,67.500000
2022-08-05T03:15:01.816Z,56.250000
2022-08-05T03:16:00.575Z,56.250000
2022-08-05T03:17:00.526Z,67.500000
2022-08-05T03:18:00.599Z,67.500000
2022-08-05T03:19:00.543Z,67.500000
2022-08-05T03:20:02.125Z,90.000000
2022-08-05T03:21:00.581Z,90.000000
2022-08-05T03:22:00.619Z,67.500000
2022-08-05T03:23:00.568Z,67.500000
2022-08-05T03:24:00.669Z,67.500000
2022-08-05T03:25:31.695Z,56.250000
2022-08-05T03:26:04.628Z,56.250000
2022-08-05T03:27:00.595Z,56.250000
2022-08-05T03:28:00.792Z,11.250000
2022-08-05T03:29:00.612Z,11.250000
2022-08-05T03:30:08.362Z,11.250000
2022-08-05T03:31:00.641Z,11.250000
2022-08-05T03:32:01.947Z,11.250000
2022-08-05T03:33:00.870Z,0.000000
2022-08-05T03:34:00.710Z,0.000000
2022-08-05T03:35:01.954Z,0.000000
2022-08-05T03:36:00.752Z,0.000000
2022-08-05T03:37:00.667Z,0.000000
2022-08-05T03:38:00.766Z,78.750000
2022-08-05T03:39:00.750Z,78.750000
2022-08-05T03:40:03.978Z,67.500000
2022-08-05T03:41:00.684Z,67.500000
2022-08-05T03:42:00.798Z,67.500000
2022-08-05T03:43:01.303Z,33.750000
2022-08-05T03:44:10.248Z,33.750000
2022-08-05T03:45:22.512Z,0.000000
2022-08-05T03:46:01.975Z,0.000000
2022-08-05T03:47:00.740Z,0.000000
2022-08-05T03:48:00.904Z,0.000000
2022-08-05T03:49:01.838Z,0.000000
2022-08-05T03:50:02.416Z,0.000000
2022-08-05T03:52:35.255Z,0.000000
2022-08-05T03:52:50.548Z,0.000000
2022-08-05T03:54:59.258Z,11.250000
2022-08-05T03:55:51.689Z,11.250000
2022-08-05T03:56:00.689Z,11.250000
2022-08-05T03:56:10.522Z,0.000000
2022-08-05T03:57:00.832Z,0.000000
2022-08-05T03:58:00.902Z,0.000000
2022-08-05T03:59:00.835Z,0.000000
2022-08-05T04:00:02.406Z,11.250000
2022-08-05T04:01:00.958Z,11.250000
2022-08-05T04:02:01.083Z,11.250000
2022-08-05T04:03:00.883Z,11.250000
2022-08-05T04:04:09.835Z,11.250000
2022-08-05T04:05:02.252Z,33.750000
2022-08-05T04:06:00.968Z,33.750000
2022-08-05T04:07:00.914Z,33.750000
2022-08-05T04:08:01.029Z,78.750000
2022-08-05T04:09:00.933Z,78.750000
2022-08-05T04:10:02.949Z,78.750000
2022-08-05T04:11:00.928Z,11.250000
2022-08-05T04:12:01.081Z,11.250000
2022-08-05T04:13:04.168Z,78.750000
2022-08-05T04:14:01.076Z,78.750000
2022-08-05T04:15:02.261Z,78.750000
2022-08-05T04:16:04.277Z,33.750000
2022-08-05T04:17:02.955Z,33.750000
2022-08-05T04:18:01.883Z,33.750000
2022-08-05T04:19:00.984Z,11.250000
2022-08-05T04:20:02.601Z,11.250000
2022-08-05T04:21:01.015Z,11.250000
2022-08-05T04:22:08.280Z,11.250000
2022-08-05T04:23:01.105Z,11.250000
2022-08-05T04:24:06.403Z,0.000000
2022-08-05T04:25:02.690Z,0.000000
2022-08-05T04:26:01.183Z,0.000000
2022-08-05T04:27:01.050Z,0.000000
2022-08-05T04:28:11.103Z,0.000000
2022-08-05T04:29:01.052Z,0.000000
2022-08-05T04:30:03.874Z,0.000000
2022-08-05T04:31:01.415Z,0.000000
2022-08-05T04:32:02.014Z,0.000000
2022-08-05T04:33:01.113Z,0.000000
2022-08-05T04:34:33.001Z,0.000000
2022-08-05T04:35:02.447Z,0.000000
2022-08-05T04:36:10.945Z,0.000000
2022-08-05T04:37:01.116Z,0.000000
2022-08-05T04:38:06.904Z,0.000000
2022-08-05T04:39:01.222Z,0.000000
2022-08-05T04:40:02.613Z,0.000000
2022-08-05T04:41:01.152Z,0.000000
2022-08-05T04:42:00.282Z,0.000000
2022-08-05T04:43:00.169Z,0.000000
2022-08-05T04:44:00.277Z,0.000000
2022-08-05T04:45:01.435Z,0.000000
2022-08-05T04:46:01.849Z,56.250000
2022-08-05T04:47:00.199Z,56.250000
2022-08-05T04:48:00.361Z,56.250000
2022-08-05T04:49:00.224Z,67.500000
2022-08-05T04:50:11.057Z,67.500000
2022-08-05T04:51:03.324Z,56.250000
2022-08-05T04:52:00.736Z,56.250000
2022-08-05T04:53:00.264Z,67.500000
2022-08-05T04:54:01.387Z,67.500000
2022-08-05T04:55:14.569Z,67.500000
2022-08-05T04:56:33.468Z,56.250000
2022-08-05T04:57:00.283Z,56.250000
2022-08-05T04:58:00.355Z,67.500000
2022-08-05T04:59:00.284Z,67.500000
2022-08-05T05:00:17.530Z,78.750000
2022-08-05T05:01:00.382Z,78.750000
2022-08-05T05:02:35.737Z,78.750000
2022-08-05T05:03:03.225Z,33.750000
2022-08-05T05:04:00.452Z,33.750000
2022-08-05T05:05:03.012Z,33.750000
2022-08-05T05:06:40.409Z,11.250000
2022-08-05T05:07:00.352Z,11.250000
2022-08-05T05:08:02.038Z,11.250000
2022-08-05T05:09:00.666Z,11.250000
2022-08-05T05:10:02.967Z,11.250000
2022-08-05T05:11:00.399Z,0.000000
2022-08-05T05:12:03.149Z,0.000000
2022-08-05T05:13:00.404Z,0.000000
2022-08-05T05:14:00.555Z,0.000000
2022-08-05T05:15:03.823Z,0.000000
2022-08-05T05:16:05.907Z,0.000000
2022-08-05T05:17:00.504Z,78.750000
2022-08-05T05:18:00.963Z,78.750000
2022-08-05T05:19:18.648Z,0.000000
2022-08-05T05:20:02.302Z,0.000000
2022-08-05T05:21:00.647Z,0.000000
2022-08-05T05:22:03.552Z,0.000000
2022-08-05T05:23:04.195Z,0.000000
2022-08-05T05:24:02.910Z,0.000000
2022-08-05T05:25:17.060Z,0.000000
2022-08-05T05:26:00.691Z,0.000000
2022-08-05T05:27:00.521Z,0.000000
2022-08-05T05:28:00.734Z,0.000000
2022-08-05T05:29:00.522Z,0.000000
2022-08-05T05:30:03.797Z,0.000000
2022-08-05T05:31:00.541Z,0.000000
2022-08-05T05:32:01.383Z,90.000000
2022-08-05T05:33:08.963Z,90.000000
2022-08-05T05:34:02.385Z,90.000000
2022-08-05T05:35:01.830Z,90.000000
2022-08-05T05:36:00.703Z,90.000000
2022-08-05T05:37:00.577Z,78.750000
2022-08-05T05:38:01.782Z,78.750000
2022-08-05T05:39:00.707Z,78.750000
2022-08-05T05:40:02.166Z,101.250000
2022-08-05T05:41:00.591Z,101.250000
2022-08-05T05:42:00.732Z,78.750000
2022-08-05T05:43:00.597Z,78.750000
2022-08-05T05:45:00.370Z,78.750000
2022-08-05T05:46:01.308Z,78.750000
2022-08-05T05:47:04.330Z,78.750000
2022-08-05T05:48:06.926Z,78.750000
2022-08-05T05:49:00.343Z,101.250000
2022-08-05T05:50:04.186Z,101.250000
2022-08-05T05:51:00.361Z,101.250000
2022-08-05T05:52:00.441Z,33.750000
2022-08-05T05:53:00.362Z,33.750000
2022-08-05T05:54:00.471Z,56.250000
2022-08-05T05:55:07.421Z,56.250000
2022-08-05T05:56:03.071Z,78.750000
2022-08-05T05:57:00.412Z,78.750000
2022-08-05T05:58:02.013Z,78.750000
2022-08-05T05:59:03.143Z,0.000000
2022-08-05T06:00:03.773Z,0.000000
2022-08-05T06:01:02.174Z,0.000000
2022-08-05T06:02:00.550Z,0.000000
2022-08-05T06:03:00.437Z,0.000000
2022-08-05T06:04:03.547Z,0.000000
2022-08-05T06:05:03.456Z,0.000000
2022-08-05T06:06:00.565Z,0.000000
2022-08-05T06:07:01.473Z,67.500000
2022-08-05T06:08:02.132Z,67.500000
2022-08-05T06:09:00.471Z,78.750000
2022-08-05T06:10:08.323Z,78.750000
2022-08-05T06:11:00.485Z,78.750000
2022-08-05T06:12:02.566Z,78.750000
2022-08-05T06:13:00.498Z,78.750000
2022-08-05T06:14:01.405Z,0.000000
2022-08-05T06:15:04.257Z,0.000000
2022-08-05T06:16:30.851Z,0.000000
2022-08-05T06:17:02.263Z,0.000000
2022-08-05T06:18:00.631Z,0.000000
2022-08-05T06:19:02.100Z,0.000000
2022-08-05T06:20:03.659Z,0.000000
2022-08-05T06:21:00.566Z,0.000000
2022-08-05T06:22:00.639Z,0.000000
2022-08-05T06:23:00.567Z,0.000000
2022-08-05T06:24:00.671Z,0.000000
2022-08-05T06:25:24.174Z,78.750000
2022-08-05T06:26:20.908Z,78.750000
2022-08-05T06:27:00.609Z,78.750000
2022-08-05T06:28:11.583Z,78.750000
2022-08-05T06:29:03.448Z,67.500000
2022-08-05T06:30:20.007Z,67.500000
2022-08-05T06:31:00.628Z,67.500000
2022-08-05T06:32:01.387Z,56.250000
2022-08-05T06:33:00.638Z,56.250000
2022-08-05T06:34:06.846Z,56.250000
2022-08-05T06:35:06.093Z,45.000000
2022-08-05T06:36:08.056Z,45.000000
2022-08-05T06:37:00.672Z,45.000000
2022-08-05T06:38:04.321Z,56.250000
2022-08-05T06:39:00.759Z,56.250000
2022-08-05T06:40:04.083Z,0.000000
2022-08-05T06:41:00.704Z,0.000000
2022-08-05T06:42:00.912Z,67.500000
2022-08-05T06:43:00.714Z,67.500000
2022-08-05T06:44:00.921Z,67.500000
2022-08-05T06:45:05.479Z,11.250000
2022-08-05T06:46:04.236Z,11.250000
2022-08-05T06:47:02.411Z,11.250000
2022-08-05T06:48:13.803Z,33.750000
2022-08-05T06:49:01.712Z,33.750000
2022-08-05T06:50:05.413Z,90.000000
2022-08-05T06:51:00.805Z,90.000000
2022-08-05T06:52:00.864Z,0.000000
2022-08-05T06:53:11.305Z,0.000000
2022-08-05T06:54:01.843Z,0.000000
2022-08-05T06:55:03.820Z,78.750000
2022-08-05T06:56:00.956Z,78.750000
2022-08-05T06:57:58.162Z,78.750000
2022-08-05T06:58:11.794Z,67.500000
2022-08-05T06:59:00.834Z,67.500000
2022-08-05T07:00:04.305Z,67.500000
2022-08-05T07:01:00.885Z,78.750000
2022-08-05T07:02:00.952Z,78.750000
2022-08-05T07:03:00.890Z,78.750000
2022-08-05T07:04:00.992Z,78.750000
2022-08-05T07:05:04.020Z,78.750000
2022-08-05T07:06:00.969Z,78.750000
2022-08-05T07:07:00.888Z,78.750000
2022-08-05T07:08:00.991Z,78.750000
2022-08-05T07:09:04.128Z,78.750000
2022-08-05T07:10:06.038Z,78.750000
2022-08-05T07:11:00.924Z,11.250000
2022-08-05T07:12:01.027Z,11.250000
2022-08-05T07:13:00.953Z,0.000000
2022-08-05T07:14:01.417Z,0.000000
2022-08-05T07:15:06.139Z,0.000000
2022-08-05T07:16:04.782Z,0.000000
2022-08-05T07:18:02.049Z,0.000000
2022-08-05T07:18:08.422Z,0.000000
2022-08-05T07:19:00.984Z,0.000000
2022-08-05T07:20:33.446Z,0.000000
2022-08-05T07:21:01.005Z,101.250000
2022-08-05T07:22:01.561Z,101.250000
2022-08-05T07:23:01.000Z,101.250000
2022-08-05T07:24:01.307Z,56.250000
2022-08-05T07:25:21.909Z,56.250000
2022-08-05T07:26:01.142Z,0.000000
2022-08-05T07:27:02.800Z,0.000000
2022-08-05T07:28:05.828Z,78.750000
2022-08-05T07:29:01.075Z,78.750000
2022-08-05T07:30:30.322Z,78.750000
2022-08-05T07:31:01.100Z,0.000000
2022-08-05T07:32:01.174Z,0.000000
2022-08-05T07:33:01.113Z,67.500000
2022-08-05T07:34:01.153Z,67.500000
2022-08-05T07:35:55.986Z,67.500000
2022-08-05T07:36:03.694Z,90.000000
2022-08-05T07:37:01.107Z,90.000000
2022-08-05T07:38:01.206Z,0.000000
2022-08-05T07:39:01.196Z,0.000000
2022-08-05T07:40:31.937Z,0.000000
2022-08-05T07:41:16.533Z,101.250000
2022-08-05T07:42:08.001Z,101.250000
2022-08-05T07:43:04.751Z,101.250000
2022-08-05T07:44:01.282Z,101.250000
2022-08-05T07:45:04.152Z,101.250000
2022-08-05T07:46:00.229Z,11.250000
2022-08-05T07:47:00.166Z,11.250000
2022-08-05T07:48:00.231Z,78.750000
2022-08-05T07:49:01.398Z,78.750000
2022-08-05T07:50:06.548Z,56.250000
2022-08-05T07:51:00.208Z,56.250000
2022-08-05T07:52:00.313Z,56.250000
2022-08-05T07:53:00.201Z,0.000000
2022-08-05T07:54:01.845Z,0.000000
2022-08-05T07:55:03.016Z,0.000000
2022-08-05T07:56:06.140Z,11.250000
2022-08-05T07:57:17.965Z,11.250000
2022-08-05T07:58:03.022Z,0.000000
2022-08-05T07:59:00.233Z,0.000000
2022-08-05T08:00:03.362Z,0.000000
2022-08-05T08:01:00.306Z,0.000000
2022-08-05T08:02:00.440Z,0.000000
2022-08-05T08:03:15.450Z,101.250000
2022-08-05T08:04:00.354Z,101.250000
2022-08-05T08:05:03.684Z,101.250000
2022-08-05T08:06:00.601Z,90.000000
2022-08-05T08:07:00.277Z,90.000000
2022-08-05T08:08:00.804Z,0.000000
2022-08-05T08:09:00.298Z,0.000000
2022-08-05T08:10:03.284Z,45.000000
2022-08-05T08:11:00.298Z,45.000000
2022-08-05T08:12:09.161Z,45.000000
2022-08-05T08:13:01.507Z,22.500000
2022-08-05T08:14:01.396Z,22.500000
2022-08-05T08:15:04.380Z,22.500000
2022-08-05T08:16:50.322Z,78.750000
2022-08-05T08:17:00.334Z,78.750000
2022-08-05T08:18:02.027Z,78.750000
2022-08-05T08:19:00.343Z,90.000000
2022-08-05T08:20:43.690Z,90.000000
2022-08-05T08:21:03.662Z,67.500000
2022-08-05T08:22:00.507Z,67.500000
2022-08-05T08:23:00.380Z,67.500000
2022-08-05T08:24:04.724Z,67.500000
2022-08-05T08:25:03.969Z,67.500000
2022-08-05T08:26:02.859Z,90.000000
2022-08-05T08:27:00.427Z,90.000000
2022-08-05T08:28:00.518Z,90.000000
2022-08-05T08:29:21.949Z,90.000000
2022-08-05T08:30:29.727Z,90.000000
2022-08-05T08:31:00.448Z,56.250000
2022-08-05T08:32:01.474Z,56.250000
2022-08-05T08:33:04.426Z,45.000000
2022-08-05T08:34:00.584Z,45.000000
2022-08-05T08:35:03.236Z,45.000000
2022-08-05T08:36:29.495Z,90.000000
2022-08-05T08:37:03.266Z,90.000000
2022-08-05T08:38:00.617Z,90.000000
2022-08-05T08:39:01.665Z,11.250000
2022-08-05T08:40:04.969Z,11.250000
2022-08-05T08:41:00.526Z,11.250000
2022-08-05T08:42:02.337Z,56.250000
2022-08-05T08:43:20.997Z,56.250000
2022-08-05T08:45:22.306Z,56.250000
2022-08-05T08:45:22.491Z,56.250000
2022-08-05T08:46:00.608Z,45.000000
2022-08-05T08:47:00.566Z,45.000000
2022-08-05T08:48:07.080Z,45.000000
2022-08-05T08:50:03.788Z,67.500000
2022-08-05T08:50:30.746Z,67.500000
2022-08-05T08:51:23.283Z,67.500000
2022-08-05T08:52:06.036Z,67.500000
2022-08-05T08:53:00.589Z,67.500000
2022-08-05T08:54:00.723Z,90.000000
2022-08-05T08:55:03.490Z,90.000000
2022-08-05T08:56:04.879Z,78.750000
2022-08-05T08:57:00.666Z,78.750000
2022-08-05T08:58:00.733Z,78.750000
2022-08-05T08:59:00.656Z,101.250000
2022-08-05T09:00:05.528Z,101.250000
2022-08-05T09:01:00.718Z,101.250000
2022-08-05T09:02:01.307Z,67.500000
2022-08-05T09:03:00.678Z,67.500000
2022-08-05T09:04:01.412Z,78.750000
2022-08-05T09:05:17.856Z,78.750000
2022-08-05T09:06:07.859Z,78.750000
2022-08-05T09:07:00.704Z,78.750000
2022-08-05T09:08:00.850Z,78.750000
2022-08-05T09:09:01.154Z,67.500000
2022-08-05T09:10:04.346Z,67.500000
2022-08-05T09:11:00.724Z,67.500000
2022-08-05T09:12:13.540Z,67.500000
2022-08-05T09:13:04.974Z,67.500000
2022-08-05T09:14:10.265Z,56.250000
2022-08-05T09:15:05.596Z,56.250000
2022-08-05T09:16:00.820Z,78.750000
2022-08-05T09:17:00.772Z,78.750000
2022-08-05T09:18:01.401Z,78.750000
2022-08-05T09:19:00.783Z,90.000000
2022-08-05T09:20:05.689Z,90.000000
2022-08-05T09:21:00.808Z,90.000000
2022-08-05T09:22:23.072Z,78.750000
2022-08-05T09:23:04.949Z,78.750000
2022-08-05T09:24:02.511Z,78.750000
2022-08-05T09:25:13.729Z,78.750000
2022-08-05T09:26:06.004Z,78.750000
2022-08-05T09:27:00.834Z,90.000000
2022-08-05T09:28:05.874Z,90.000000
2022-08-05T09:29:00.830Z,101.250000
2022-08-05T09:30:06.591Z,101.250000
2022-08-05T09:31:00.847Z,101.250000
2022-08-05T09:32:41.581Z,101.250000
2022-08-05T09:33:00.888Z,101.250000
2022-08-05T09:34:00.945Z,101.250000
2022-08-05T09:35:03.754Z,78.750000
2022-08-05T09:36:06.080Z,78.750000
2022-08-05T09:37:00.883Z,101.250000
2022-08-05T09:38:16.671Z,101.250000
2022-08-05T09:39:00.996Z,101.250000
2022-08-05T09:40:04.396Z,67.500000
2022-08-05T09:41:00.924Z,67.500000
2022-08-05T09:42:01.021Z,78.750000
2022-08-05T09:43:00.933Z,78.750000
2022-08-05T09:44:01.031Z,78.750000
2022-08-05T09:46:04.763Z,78.750000
2022-08-05T09:46:06.907Z,78.750000
2022-08-05T09:47:00.954Z,78.750000
2022-08-05T09:48:01.097Z,78.750000
2022-08-05T09:49:08.077Z,78.750000
2022-08-05T09:50:04.111Z,45.000000
2022-08-05T09:51:01.000Z,45.000000
2022-08-05T09:52:01.090Z,33.750000
2022-08-05T09:53:01.189Z,33.750000
2022-08-05T09:54:01.205Z,33.750000
2022-08-05T09:55:06.277Z,56.250000
2022-08-05T09:56:04.721Z,56.250000
2022-08-05T09:57:01.294Z,56.250000
2022-08-05T09:58:01.126Z,45.000000
2022-08-05T09:59:01.030Z,45.000000
2022-08-05T10:00:08.264Z,90.000000
2022-08-05T10:01:01.084Z,90.000000
2022-08-05T10:02:01.171Z,90.000000
2022-08-05T10:03:01.165Z,67.500000
2022-08-05T10:04:01.460Z,67.500000
2022-08-05T10:05:04.149Z,78.750000
2022-08-05T10:06:04.780Z,78.750000
2022-08-05T10:07:01.668Z,78.750000
2022-08-05T10:08:35.142Z,90.000000
2022-08-05T10:09:01.120Z,90.000000
2022-08-05T10:10:15.584Z,56.250000
2022-08-05T10:11:01.126Z,56.250000
2022-08-05T10:12:04.830Z,56.250000
2022-08-05T10:13:01.142Z,78.750000
2022-08-05T10:14:00.229Z,78.750000
2022-08-05T10:15:02.973Z,90.000000
2022-08-05T10:16:00.247Z,90.000000
2022-08-05T10:17:00.184Z,90.000000
2022-08-05T10:18:01.433Z,90.000000
2022-08-05T10:19:00.191Z,90.000000
2022-08-05T10:20:09.985Z,90.000000
2022-08-05T10:21:00.209Z,45.000000
2022-08-05T10:22:00.342Z,45.000000
2022-08-05T10:23:00.226Z,67.500000
2022-08-05T10:24:01.318Z,67.500000
2022-08-05T10:25:02.933Z,90.000000
2022-08-05T10:26:00.370Z,90.000000
2022-08-05T10:27:01.262Z,78.750000
2022-08-05T10:28:13.326Z,78.750000
2022-08-05T10:29:00.446Z,78.750000
2022-08-05T10:30:49.530Z,67.500000
2022-08-05T10:32:50.702Z,67.500000
2022-08-05T10:33:01.849Z,90.000000
2022-08-05T10:33:02.200Z,67.500000
2022-08-05T10:34:00.366Z,90.000000
2022-08-05T10:35:03.004Z,56.250000
2022-08-05T10:36:00.443Z,56.250000
2022-08-05T10:37:00.288Z,90.000000
2022-08-05T10:38:00.348Z,90.000000
2022-08-05T10:39:00.403Z,90.000000
2022-08-05T10:40:17.653Z,56.250000
2022-08-05T10:41:00.408Z,56.250000
2022-08-05T10:42:01.333Z,56.250000
2022-08-05T10:43:00.359Z,78.750000
2022-08-05T10:44:00.634Z,78.750000
2022-08-05T10:45:20.992Z,78.750000
2022-08-05T10:46:06.215Z,78.750000
2022-08-05T10:47:00.405Z,78.750000
2022-08-05T10:48:31.823Z,90.000000
2022-08-05T10:49:08.065Z,90.000000
2022-08-05T10:50:32.695Z,101.250000
2022-08-05T10:51:00.430Z,101.250000
2022-08-05T10:52:02.508Z,101.250000
2022-08-05T10:53:00.447Z,78.750000
2022-08-05T10:54:00.845Z,78.750000
2022-08-05T10:55:03.211Z,90.000000
2022-08-05T10:56:04.645Z,90.000000
2022-08-05T10:57:00.462Z,90.000000
2022-08-05T10:58:00.719Z,33.750000
2022-08-05T10:59:11.495Z,33.750000
2022-08-05T11:00:12.072Z,33.750000
2022-08-05T11:01:02.985Z,33.750000
2022-08-05T11:02:04.654Z,33.750000
2022-08-05T11:03:23.701Z,67.500000
2022-08-05T11:04:00.649Z,67.500000
2022-08-05T11:05:03.382Z,90.000000
2022-08-05T11:06:00.772Z,90.000000
2022-08-05T11:07:00.529Z,90.000000
2022-08-05T11:08:02.940Z,90.000000
2022-08-05T11:09:00.553Z,90.000000
2022-08-05T11:10:09.900Z,78.750000
2022-08-05T11:11:02.246Z,78.750000
2022-08-05T11:12:00.735Z,78.750000
2022-08-05T11:13:01.249Z,67.500000
2022-08-05T11:14:01.423Z,67.500000
2022-08-05T11:15:19.445Z,67.500000
2022-08-05T11:16:01.999Z,78.750000
2022-08-05T11:17:10.704Z,78.750000
2022-08-05T11:18:03.830Z,67.500000
2022-08-05T11:19:00.613Z,67.500000
2022-08-05T11:20:17.417Z,67.500000
2022-08-05T11:21:00.634Z,45.000000
2022-08-05T11:22:00.692Z,45.000000
2022-08-05T11:23:05.872Z,56.250000
2022-08-05T11:24:05.259Z,56.250000
2022-08-05T11:26:03.000Z,56.250000
2022-08-05T11:26:04.518Z,67.500000
2022-08-05T11:27:00.677Z,67.500000
2022-08-05T11:28:01.040Z,101.250000
2022-08-05T11:29:11.552Z,101.250000
2022-08-05T11:30:04.133Z,101.250000
2022-08-05T11:31:00.697Z,90.000000
2022-08-05T11:32:01.390Z,90.000000
2022-08-05T11:33:00.722Z,90.000000
2022-08-05T11:34:00.785Z,90.000000